sensor_id;sensor_type;location;lat;lon;timestamp;P1;durP1;ratioP1;P2;durP2;ratioP2
7383;SDS011;3733;47.994;8.820;2022-08-03T00:01:28;4.30;;;3.27;;
7383;SDS011;3733;47.994;8.820;2022-08-03T00:03:54;4.90;;;3.40;;
7383;SDS011;3733;47.994;8.820;2022-08-03T00:06:20;4.10;;;3.30;;
7383;SDS011;3733;47.994;8.820;2022-08-03T00:08:45;5.53;;;3.73;;
7383;SDS011;3733;47.994;8.820;2022-08-03T00:11:11;3.57;;;3.27;;
7383;SDS011;3733;47.994;8.820;2022-08-03T00:13:37;4.10;;;3.70;;
7383;SDS011;3733;47.994;8.820;2022-08-03T00:16:02;3.50;;;3.23;;
7383;SDS011;3733;47.994;8.820;2022-08-03T00:18:28;4.53;;;3.83;;
7383;SDS011;3733;47.994;8.820;2022-08-03T00:20:54;4.23;;;3.83;;
7383;SDS011;3733;47.994;8.820;2022-08-03T00:23:20;9.23;;;3.73;;
7383;SDS011;3733;47.994;8.820;2022-08-03T00:25:45;4.70;;;3.60;;
7383;SDS011;3733;47.994;8.820;2022-08-03T00:28:11;4.63;;;3.83;;
7383;SDS011;3733;47.994;8.820;2022-08-03T00:30:36;3.40;;;3.10;;
7383;SDS011;3733;47.994;8.820;2022-08-03T00:33:02;4.00;;;3.40;;
7383;SDS011;3733;47.994;8.820;2022-08-03T00:35:28;4.67;;;3.77;;
7383;SDS011;3733;47.994;8.820;2022-08-03T00:37:54;4.60;;;3.57;;
7383;SDS011;3733;47.994;8.820;2022-08-03T00:40:22;8.93;;;3.23;;
7383;SDS011;3733;47.994;8.820;2022-08-03T00:43:06;4.60;;;3.70;;
7383;SDS011;3733;47.994;8.820;2022-08-03T00:48:03;4.30;;;3.80;;
7383;SDS011;3733;47.994;8.820;2022-08-03T00:50:31;9.00;;;4.37;;
7383;SDS011;3733;47.994;8.820;2022-08-03T00:52:59;5.80;;;3.90;;
7383;SDS011;3733;47.994;8.820;2022-08-03T00:55:26;5.50;;;3.80;;
7383;SDS011;3733;47.994;8.820;2022-08-03T00:57:52;4.40;;;3.60;;
7383;SDS011;3733;47.994;8.820;2022-08-03T01:00:19;3.90;;;3.50;;
7383;SDS011;3733;47.994;8.820;2022-08-03T01:02:46;4.27;;;3.77;;
7383;SDS011;3733;47.994;8.820;2022-08-03T01:05:12;5.00;;;4.37;;
7383;SDS011;3733;47.994;8.820;2022-08-03T01:18:30;8.70;;;3.87;;
7383;SDS011;3733;47.994;8.820;2022-08-03T01:20:57;6.73;;;4.10;;
7383;SDS011;3733;47.994;8.820;2022-08-03T01:23:29;3.83;;;3.53;;
7383;SDS011;3733;47.994;8.820;2022-08-03T01:26:26;4.70;;;4.27;;
7383;SDS011;3733;47.994;8.820;2022-08-03T01:29:20;6.53;;;3.67;;
7383;SDS011;3733;47.994;8.820;2022-08-03T01:32:17;4.50;;;3.73;;
7383;SDS011;3733;47.994;8.820;2022-08-03T01:34:47;4.40;;;3.60;;
7383;SDS011;3733;47.994;8.820;2022-08-03T01:37:21;8.80;;;3.20;;
7383;SDS011;3733;47.994;8.820;2022-08-03T01:39:52;4.20;;;3.80;;
7383;SDS011;3733;47.994;8.820;2022-08-03T01:42:21;4.73;;;4.20;;
7383;SDS011;3733;47.994;8.820;2022-08-03T01:44:49;9.40;;;3.60;;
7383;SDS011;3733;47.994;8.820;2022-08-03T01:47:19;4.00;;;3.60;;
7383;SDS011;3733;47.994;8.820;2022-08-03T01:49:46;5.10;;;4.20;;
7383;SDS011;3733;47.994;8.820;2022-08-03T01:52:14;4.97;;;3.40;;
7383;SDS011;3733;47.994;8.820;2022-08-03T01:54:43;5.00;;;4.50;;
7383;SDS011;3733;47.994;8.820;2022-08-03T01:57:12;6.00;;;4.77;;
7383;SDS011;3733;47.994;8.820;2022-08-03T01:59:39;4.37;;;3.53;;
7383;SDS011;3733;47.994;8.820;2022-08-03T02:02:07;4.40;;;4.00;;
7383;SDS011;3733;47.994;8.820;2022-08-03T02:04:35;6.33;;;3.90;;
7383;SDS011;3733;47.994;8.820;2022-08-03T02:07:03;8.57;;;4.00;;
7383;SDS011;3733;47.994;8.820;2022-08-03T02:09:29;8.87;;;3.97;;
7383;SDS011;3733;47.994;8.820;2022-08-03T02:11:56;5.70;;;4.87;;
7383;SDS011;3733;47.994;8.820;2022-08-03T02:14:24;8.00;;;3.93;;
7383;SDS011;3733;47.994;8.820;2022-08-03T02:16:52;5.80;;;4.40;;
7383;SDS011;3733;47.994;8.820;2022-08-03T02:19:19;5.67;;;4.77;;
7383;SDS011;3733;47.994;8.820;2022-08-03T02:21:45;5.00;;;4.50;;
7383;SDS011;3733;47.994;8.820;2022-08-03T02:24:11;6.13;;;4.47;;
7383;SDS011;3733;47.994;8.820;2022-08-03T02:26:37;4.67;;;4.27;;
7383;SDS011;3733;47.994;8.820;2022-08-03T02:29:06;6.03;;;4.47;;
7383;SDS011;3733;47.994;8.820;2022-08-03T02:31:39;4.57;;;4.03;;
7383;SDS011;3733;47.994;8.820;2022-08-03T02:34:08;4.87;;;3.77;;
7383;SDS011;3733;47.994;8.820;2022-08-03T02:36:37;6.67;;;3.90;;
7383;SDS011;3733;47.994;8.820;2022-08-03T02:39:05;4.37;;;3.97;;
7383;SDS011;3733;47.994;8.820;2022-08-03T02:41:39;9.83;;;4.80;;
7383;SDS011;3733;47.994;8.820;2022-08-03T02:44:10;4.50;;;4.10;;
7383;SDS011;3733;47.994;8.820;2022-08-03T02:46:37;8.70;;;4.50;;
7383;SDS011;3733;47.994;8.820;2022-08-03T02:49:06;6.10;;;4.30;;
7383;SDS011;3733;47.994;8.820;2022-08-03T02:51:35;6.50;;;4.60;;
7383;SDS011;3733;47.994;8.820;2022-08-03T02:54:03;5.27;;;4.20;;
7383;SDS011;3733;47.994;8.820;2022-08-03T02:56:30;5.30;;;4.80;;
7383;SDS011;3733;47.994;8.820;2022-08-03T02:58:57;5.43;;;4.57;;
7383;SDS011;3733;47.994;8.820;2022-08-03T03:01:24;6.30;;;5.03;;
7383;SDS011;3733;47.994;8.820;2022-08-03T03:03:53;5.50;;;4.80;;
7383;SDS011;3733;47.994;8.820;2022-08-03T03:06:21;5.40;;;4.70;;
7383;SDS011;3733;47.994;8.820;2022-08-03T03:08:49;6.47;;;5.20;;
7383;SDS011;3733;47.994;8.820;2022-08-03T03:11:17;5.90;;;5.20;;
7383;SDS011;3733;47.994;8.820;2022-08-03T03:13:45;7.20;;;4.90;;
7383;SDS011;3733;47.994;8.820;2022-08-03T03:16:13;7.73;;;4.70;;
7383;SDS011;3733;47.994;8.820;2022-08-03T03:18:40;6.23;;;5.40;;
7383;SDS011;3733;47.994;8.820;2022-08-03T03:21:08;5.30;;;4.80;;
7383;SDS011;3733;47.994;8.820;2022-08-03T03:23:38;5.83;;;5.33;;
7383;SDS011;3733;47.994;8.820;2022-08-03T03:26:05;5.37;;;4.87;;
7383;SDS011;3733;47.994;8.820;2022-08-03T03:28:32;5.60;;;5.00;;
7383;SDS011;3733;47.994;8.820;2022-08-03T03:31:01;7.87;;;5.93;;
7383;SDS011;3733;47.994;8.820;2022-08-03T03:33:28;7.90;;;5.77;;
7383;SDS011;3733;47.994;8.820;2022-08-03T03:35:54;5.57;;;5.07;;
7383;SDS011;3733;47.994;8.820;2022-08-03T03:38:21;7.40;;;6.37;;
7383;SDS011;3733;47.994;8.820;2022-08-03T03:40:47;6.17;;;5.57;;
7383;SDS011;3733;47.994;8.820;2022-08-03T03:43:13;6.50;;;5.90;;
7383;SDS011;3733;47.994;8.820;2022-08-03T03:45:41;6.83;;;5.17;;
7383;SDS011;3733;47.994;8.820;2022-08-03T03:48:07;7.70;;;5.10;;
7383;SDS011;3733;47.994;8.820;2022-08-03T03:50:34;5.73;;;5.17;;
7383;SDS011;3733;47.994;8.820;2022-08-03T03:53:02;5.73;;;4.87;;
7383;SDS011;3733;47.994;8.820;2022-08-03T03:55:28;5.50;;;4.93;;
7383;SDS011;3733;47.994;8.820;2022-08-03T03:57:54;7.43;;;5.37;;
7383;SDS011;3733;47.994;8.820;2022-08-03T04:00:20;6.50;;;4.97;;
7383;SDS011;3733;47.994;8.820;2022-08-03T04:02:47;5.60;;;4.80;;
7383;SDS011;3733;47.994;8.820;2022-08-03T04:05:13;6.03;;;4.80;;
7383;SDS011;3733;47.994;8.820;2022-08-03T04:07:58;6.63;;;5.17;;
7383;SDS011;3733;47.994;8.820;2022-08-03T04:10:47;6.07;;;4.63;;
7383;SDS011;3733;47.994;8.820;2022-08-03T04:13:31;6.83;;;4.13;;
7383;SDS011;3733;47.994;8.820;2022-08-03T04:16:00;5.10;;;4.50;;
7383;SDS011;3733;47.994;8.820;2022-08-03T04:18:28;5.33;;;4.27;;
7383;SDS011;3733;47.994;8.820;2022-08-03T04:20:58;5.13;;;4.63;;
7383;SDS011;3733;47.994;8.820;2022-08-03T04:23:27;5.00;;;4.50;;
7383;SDS011;3733;47.994;8.820;2022-08-03T04:25:57;6.93;;;4.60;;
7383;SDS011;3733;47.994;8.820;2022-08-03T04:28:25;7.40;;;4.53;;
7383;SDS011;3733;47.994;8.820;2022-08-03T04:30:52;7.10;;;5.10;;
7383;SDS011;3733;47.994;8.820;2022-08-03T04:33:19;8.07;;;5.60;;
7383;SDS011;3733;47.994;8.820;2022-08-03T04:35:48;6.90;;;5.20;;
7383;SDS011;3733;47.994;8.820;2022-08-03T04:38:17;5.93;;;5.40;;
7383;SDS011;3733;47.994;8.820;2022-08-03T04:40:43;7.60;;;5.53;;
7383;SDS011;3733;47.994;8.820;2022-08-03T04:43:11;8.40;;;5.27;;
7383;SDS011;3733;47.994;8.820;2022-08-03T04:45:40;8.60;;;5.67;;
7383;SDS011;3733;47.994;8.820;2022-08-03T04:48:07;7.13;;;5.40;;
7383;SDS011;3733;47.994;8.820;2022-08-03T04:50:33;6.80;;;5.50;;
7383;SDS011;3733;47.994;8.820;2022-08-03T04:53:00;7.47;;;5.80;;
7383;SDS011;3733;47.994;8.820;2022-08-03T04:55:29;8.40;;;5.90;;
7383;SDS011;3733;47.994;8.820;2022-08-03T04:57:56;6.90;;;5.70;;
7383;SDS011;3733;47.994;8.820;2022-08-03T05:00:23;8.50;;;6.50;;
7383;SDS011;3733;47.994;8.820;2022-08-03T05:02:50;5.83;;;5.23;;
7383;SDS011;3733;47.994;8.820;2022-08-03T05:05:17;10.73;;;6.20;;
7383;SDS011;3733;47.994;8.820;2022-08-03T05:07:43;6.60;;;5.73;;
7383;SDS011;3733;47.994;8.820;2022-08-03T05:10:09;9.20;;;5.97;;
7383;SDS011;3733;47.994;8.820;2022-08-03T05:12:36;7.43;;;5.87;;
7383;SDS011;3733;47.994;8.820;2022-08-03T05:15:02;6.70;;;5.97;;
7383;SDS011;3733;47.994;8.820;2022-08-03T05:17:28;8.10;;;5.83;;
7383;SDS011;3733;47.994;8.820;2022-08-03T05:19:54;8.83;;;5.33;;
7383;SDS011;3733;47.994;8.820;2022-08-03T05:22:20;7.20;;;5.77;;
7383;SDS011;3733;47.994;8.820;2022-08-03T05:24:46;6.80;;;5.40;;
7383;SDS011;3733;47.994;8.820;2022-08-03T05:27:12;10.50;;;5.37;;
7383;SDS011;3733;47.994;8.820;2022-08-03T05:29:43;5.70;;;4.80;;
7383;SDS011;3733;47.994;8.820;2022-08-03T05:32:09;5.77;;;5.07;;
7383;SDS011;3733;47.994;8.820;2022-08-03T05:34:35;7.00;;;5.20;;
7383;SDS011;3733;47.994;8.820;2022-08-03T05:37:00;10.40;;;5.60;;
7383;SDS011;3733;47.994;8.820;2022-08-03T05:39:26;7.20;;;5.00;;
7383;SDS011;3733;47.994;8.820;2022-08-03T05:41:51;5.67;;;5.07;;
7383;SDS011;3733;47.994;8.820;2022-08-03T05:44:17;9.57;;;5.67;;
7383;SDS011;3733;47.994;8.820;2022-08-03T05:46:43;8.13;;;5.60;;
7383;SDS011;3733;47.994;8.820;2022-08-03T05:49:08;6.40;;;5.37;;
7383;SDS011;3733;47.994;8.820;2022-08-03T05:51:34;6.50;;;5.00;;
7383;SDS011;3733;47.994;8.820;2022-08-03T05:54:01;10.70;;;4.30;;
7383;SDS011;3733;47.994;8.820;2022-08-03T05:56:27;5.90;;;5.27;;
7383;SDS011;3733;47.994;8.820;2022-08-03T05:58:52;5.53;;;4.33;;
7383;SDS011;3733;47.994;8.820;2022-08-03T06:01:19;5.97;;;4.97;;
7383;SDS011;3733;47.994;8.820;2022-08-03T06:03:48;8.40;;;4.40;;
7383;SDS011;3733;47.994;8.820;2022-08-03T06:06:14;5.93;;;5.33;;
7383;SDS011;3733;47.994;8.820;2022-08-03T06:08:41;9.93;;;4.80;;
7383;SDS011;3733;47.994;8.820;2022-08-03T06:11:07;5.40;;;4.53;;
7383;SDS011;3733;47.994;8.820;2022-08-03T06:13:33;5.33;;;4.67;;
7383;SDS011;3733;47.994;8.820;2022-08-03T06:15:59;6.17;;;4.27;;
7383;SDS011;3733;47.994;8.820;2022-08-03T06:18:25;14.70;;;4.37;;
7383;SDS011;3733;47.994;8.820;2022-08-03T06:20:51;6.13;;;4.10;;
7383;SDS011;3733;47.994;8.820;2022-08-03T06:23:17;6.03;;;4.60;;
7383;SDS011;3733;47.994;8.820;2022-08-03T06:25:43;4.93;;;3.33;;
7383;SDS011;3733;47.994;8.820;2022-08-03T06:28:09;7.57;;;3.83;;
7383;SDS011;3733;47.994;8.820;2022-08-03T06:30:35;4.23;;;3.83;;
7383;SDS011;3733;47.994;8.820;2022-08-03T06:33:00;5.80;;;3.60;;
7383;SDS011;3733;47.994;8.820;2022-08-03T06:35:26;4.93;;;3.53;;
7383;SDS011;3733;47.994;8.820;2022-08-03T06:37:52;6.30;;;3.67;;
7383;SDS011;3733;47.994;8.820;2022-08-03T06:40:19;6.53;;;3.60;;
7383;SDS011;3733;47.994;8.820;2022-08-03T06:42:54;5.50;;;3.77;;
7383;SDS011;3733;47.994;8.820;2022-08-03T06:45:20;4.70;;;3.83;;
7383;SDS011;3733;47.994;8.820;2022-08-03T06:47:46;3.80;;;3.40;;
7383;SDS011;3733;47.994;8.820;2022-08-03T06:50:12;4.37;;;3.97;;
7383;SDS011;3733;47.994;8.820;2022-08-03T06:52:37;4.73;;;3.63;;
7383;SDS011;3733;47.994;8.820;2022-08-03T06:55:03;4.40;;;3.80;;
7383;SDS011;3733;47.994;8.820;2022-08-03T06:57:29;10.03;;;4.17;;
7383;SDS011;3733;47.994;8.820;2022-08-03T06:59:55;6.90;;;3.60;;
7383;SDS011;3733;47.994;8.820;2022-08-03T07:02:25;3.83;;;3.23;;
7383;SDS011;3733;47.994;8.820;2022-08-03T07:04:52;4.83;;;3.60;;
7383;SDS011;3733;47.994;8.820;2022-08-03T07:07:18;3.10;;;2.80;;
7383;SDS011;3733;47.994;8.820;2022-08-03T07:09:44;5.77;;;3.53;;
7383;SDS011;3733;47.994;8.820;2022-08-03T07:12:11;3.57;;;3.27;;
7383;SDS011;3733;47.994;8.820;2022-08-03T07:14:37;3.87;;;3.07;;
7383;SDS011;3733;47.994;8.820;2022-08-03T07:17:03;13.50;;;4.47;;
7383;SDS011;3733;47.994;8.820;2022-08-03T07:19:28;4.20;;;3.80;;
7383;SDS011;3733;47.994;8.820;2022-08-03T07:21:54;3.60;;;2.93;;
7383;SDS011;3733;47.994;8.820;2022-08-03T07:24:20;3.53;;;3.23;;
7383;SDS011;3733;47.994;8.820;2022-08-03T07:26:46;5.33;;;3.30;;
7383;SDS011;3733;47.994;8.820;2022-08-03T07:29:11;5.03;;;3.50;;
7383;SDS011;3733;47.994;8.820;2022-08-03T07:31:37;7.00;;;2.77;;
7383;SDS011;3733;47.994;8.820;2022-08-03T07:34:04;3.33;;;3.00;;
7383;SDS011;3733;47.994;8.820;2022-08-03T07:36:30;3.80;;;3.27;;
7383;SDS011;3733;47.994;8.820;2022-08-03T07:38:56;4.20;;;3.20;;
7383;SDS011;3733;47.994;8.820;2022-08-03T07:41:22;3.53;;;3.23;;
7383;SDS011;3733;47.994;8.820;2022-08-03T07:43:48;5.93;;;4.60;;
7383;SDS011;3733;47.994;8.820;2022-08-03T07:46:14;3.67;;;3.23;;
7383;SDS011;3733;47.994;8.820;2022-08-03T07:48:40;3.97;;;3.03;;
7383;SDS011;3733;47.994;8.820;2022-08-03T07:51:05;2.63;;;2.43;;
7383;SDS011;3733;47.994;8.820;2022-08-03T07:53:31;3.57;;;2.77;;
7383;SDS011;3733;47.994;8.820;2022-08-03T07:55:57;2.93;;;2.60;;
7383;SDS011;3733;47.994;8.820;2022-08-03T07:58:22;2.50;;;2.30;;
7383;SDS011;3733;47.994;8.820;2022-08-03T08:00:48;4.47;;;2.70;;
7383;SDS011;3733;47.994;8.820;2022-08-03T08:03:16;2.80;;;2.60;;
7383;SDS011;3733;47.994;8.820;2022-08-03T08:05:42;5.70;;;2.80;;
7383;SDS011;3733;47.994;8.820;2022-08-03T08:08:08;5.53;;;2.70;;
7383;SDS011;3733;47.994;8.820;2022-08-03T08:10:34;5.23;;;2.47;;
7383;SDS011;3733;47.994;8.820;2022-08-03T08:13:01;4.37;;;2.50;;
7383;SDS011;3733;47.994;8.820;2022-08-03T08:15:27;2.33;;;2.10;;
7383;SDS011;3733;47.994;8.820;2022-08-03T08:17:54;3.20;;;2.90;;
7383;SDS011;3733;47.994;8.820;2022-08-03T08:20:23;5.03;;;2.30;;
7383;SDS011;3733;47.994;8.820;2022-08-03T08:22:56;1.80;;;1.70;;
7383;SDS011;3733;47.994;8.820;2022-08-03T08:25:26;2.53;;;1.80;;
7383;SDS011;3733;47.994;8.820;2022-08-03T08:27:53;7.53;;;2.60;;
7383;SDS011;3733;47.994;8.820;2022-08-03T08:30:20;1.80;;;1.70;;
7383;SDS011;3733;47.994;8.820;2022-08-03T08:32:47;4.50;;;2.23;;
7383;SDS011;3733;47.994;8.820;2022-08-03T08:35:16;1.80;;;1.70;;
7383;SDS011;3733;47.994;8.820;2022-08-03T08:37:42;5.80;;;2.33;;
7383;SDS011;3733;47.994;8.820;2022-08-03T08:40:08;4.60;;;2.13;;
7383;SDS011;3733;47.994;8.820;2022-08-03T08:42:41;2.70;;;2.20;;
7383;SDS011;3733;47.994;8.820;2022-08-03T08:45:08;2.37;;;2.17;;
7383;SDS011;3733;47.994;8.820;2022-08-03T08:47:37;2.63;;;1.80;;
7383;SDS011;3733;47.994;8.820;2022-08-03T08:50:04;3.50;;;2.07;;
7383;SDS011;3733;47.994;8.820;2022-08-03T08:52:32;2.43;;;2.13;;
7383;SDS011;3733;47.994;8.820;2022-08-03T08:55:00;3.83;;;2.10;;
7383;SDS011;3733;47.994;8.820;2022-08-03T08:57:29;3.03;;;2.20;;
7383;SDS011;3733;47.994;8.820;2022-08-03T09:00:03;3.60;;;1.80;;
7383;SDS011;3733;47.994;8.820;2022-08-03T09:02:34;1.93;;;1.60;;
7383;SDS011;3733;47.994;8.820;2022-08-03T09:05:00;2.10;;;1.90;;
7383;SDS011;3733;47.994;8.820;2022-08-03T09:07:26;3.80;;;2.23;;
7383;SDS011;3733;47.994;8.820;2022-08-03T09:09:52;2.43;;;1.87;;
7383;SDS011;3733;47.994;8.820;2022-08-03T09:12:18;1.80;;;1.70;;
7383;SDS011;3733;47.994;8.820;2022-08-03T09:14:44;2.80;;;2.13;;
7383;SDS011;3733;47.994;8.820;2022-08-03T09:17:10;11.73;;;3.03;;
7383;SDS011;3733;47.994;8.820;2022-08-03T09:19:35;3.93;;;2.67;;
7383;SDS011;3733;47.994;8.820;2022-08-03T09:22:14;3.73;;;2.00;;
7383;SDS011;3733;47.994;8.820;2022-08-03T09:24:54;1.87;;;1.77;;
7383;SDS011;3733;47.994;8.820;2022-08-03T09:27:22;4.73;;;2.17;;
7383;SDS011;3733;47.994;8.820;2022-08-03T09:29:49;21.90;;;3.33;;
7383;SDS011;3733;47.994;8.820;2022-08-03T09:32:18;7.30;;;2.00;;
7383;SDS011;3733;47.994;8.820;2022-08-03T09:34:45;2.40;;;1.73;;
7383;SDS011;3733;47.994;8.820;2022-08-03T09:37:17;17.20;;;2.93;;
7383;SDS011;3733;47.994;8.820;2022-08-03T09:39:45;10.60;;;2.37;;
7383;SDS011;3733;47.994;8.820;2022-08-03T09:42:12;2.20;;;2.00;;
7383;SDS011;3733;47.994;8.820;2022-08-03T09:44:45;1.57;;;1.40;;
7383;SDS011;3733;47.994;8.820;2022-08-03T09:47:13;12.20;;;2.60;;
7383;SDS011;3733;47.994;8.820;2022-08-03T09:49:40;4.30;;;2.07;;
7383;SDS011;3733;47.994;8.820;2022-08-03T09:54:43;9.93;;;2.50;;
7383;SDS011;3733;47.994;8.820;2022-08-03T09:57:21;10.30;;;2.10;;
7383;SDS011;3733;47.994;8.820;2022-08-03T09:59:47;4.00;;;1.80;;
7383;SDS011;3733;47.994;8.820;2022-08-03T10:02:23;2.67;;;2.10;;
7383;SDS011;3733;47.994;8.820;2022-08-03T10:04:51;5.80;;;1.80;;
7383;SDS011;3733;47.994;8.820;2022-08-03T10:07:19;1.80;;;1.70;;
7383;SDS011;3733;47.994;8.820;2022-08-03T10:09:58;2.22;;;1.90;;
7383;SDS011;3733;47.994;8.820;2022-08-03T10:12:25;2.15;;;1.85;;
7383;SDS011;3733;47.994;8.820;2022-08-03T10:14:52;2.55;;;2.10;;
7383;SDS011;3733;47.994;8.820;2022-08-03T10:17:19;2.22;;;1.85;;
7383;SDS011;3733;47.994;8.820;2022-08-03T10:19:46;2.35;;;2.15;;
7383;SDS011;3733;47.994;8.820;2022-08-03T10:22:13;1.90;;;1.70;;
7383;SDS011;3733;47.994;8.820;2022-08-03T10:24:54;4.40;;;2.10;;
7383;SDS011;3733;47.994;8.820;2022-08-03T10:27:24;2.17;;;1.98;;
7383;SDS011;3733;47.994;8.820;2022-08-03T10:29:54;6.20;;;1.92;;
7383;SDS011;3733;47.994;8.820;2022-08-03T10:35:07;2.45;;;1.63;;
7383;SDS011;3733;47.994;8.820;2022-08-03T10:37:36;5.63;;;2.25;;
7383;SDS011;3733;47.994;8.820;2022-08-03T10:40:08;5.60;;;2.10;;
7383;SDS011;3733;47.994;8.820;2022-08-03T10:42:37;5.05;;;1.90;;
7383;SDS011;3733;47.994;8.820;2022-08-03T10:45:08;4.68;;;1.98;;
7383;SDS011;3733;47.994;8.820;2022-08-03T10:47:45;3.10;;;2.10;;
7383;SDS011;3733;47.994;8.820;2022-08-03T10:50:12;2.13;;;1.70;;
7383;SDS011;3733;47.994;8.820;2022-08-03T10:55:39;2.35;;;1.95;;
7383;SDS011;3733;47.994;8.820;2022-08-03T11:01:03;1.90;;;1.80;;
7383;SDS011;3733;47.994;8.820;2022-08-03T11:03:30;2.45;;;1.65;;
7383;SDS011;3733;47.994;8.820;2022-08-03T11:06:13;3.03;;;1.83;;
7383;SDS011;3733;47.994;8.820;2022-08-03T11:08:47;2.00;;;1.90;;
7383;SDS011;3733;47.994;8.820;2022-08-03T11:13:58;2.38;;;2.17;;
7383;SDS011;3733;47.994;8.820;2022-08-03T11:16:29;2.20;;;2.10;;
7383;SDS011;3733;47.994;8.820;2022-08-03T11:18:59;2.65;;;1.90;;
7383;SDS011;3733;47.994;8.820;2022-08-03T11:29:38;2.28;;;2.15;;
7383;SDS011;3733;47.994;8.820;2022-08-03T11:35:18;4.07;;;2.03;;
7383;SDS011;3733;47.994;8.820;2022-08-03T11:43:05;4.20;;;1.92;;
7383;SDS011;3733;47.994;8.820;2022-08-03T11:45:33;4.82;;;2.35;;
7383;SDS011;3733;47.994;8.820;2022-08-03T11:48:01;2.00;;;1.90;;
7383;SDS011;3733;47.994;8.820;2022-08-03T11:50:38;4.03;;;1.90;;
7383;SDS011;3733;47.994;8.820;2022-08-03T11:53:04;8.00;;;2.60;;
7383;SDS011;3733;47.994;8.820;2022-08-03T11:55:31;1.90;;;1.80;;
7383;SDS011;3733;47.994;8.820;2022-08-03T11:57:57;3.45;;;2.10;;
7383;SDS011;3733;47.994;8.820;2022-08-03T12:00:25;7.18;;;2.17;;
7383;SDS011;3733;47.994;8.820;2022-08-03T12:02:56;2.05;;;1.70;;
7383;SDS011;3733;47.994;8.820;2022-08-03T12:05:59;2.38;;;1.95;;
7383;SDS011;3733;47.994;8.820;2022-08-03T12:08:27;2.08;;;1.60;;
7383;SDS011;3733;47.994;8.820;2022-08-03T12:10:56;1.88;;;1.77;;
7383;SDS011;3733;47.994;8.820;2022-08-03T12:13:23;25.50;;;4.20;;
7383;SDS011;3733;47.994;8.820;2022-08-03T12:15:54;4.93;;;1.70;;
7383;SDS011;3733;47.994;8.820;2022-08-03T12:18:22;9.23;;;2.40;;
7383;SDS011;3733;47.994;8.820;2022-08-03T12:20:48;5.43;;;2.00;;
7383;SDS011;3733;47.994;8.820;2022-08-03T12:23:15;1.73;;;1.58;;
7383;SDS011;3733;47.994;8.820;2022-08-03T12:25:42;7.82;;;2.13;;
7383;SDS011;3733;47.994;8.820;2022-08-03T12:30:49;2.10;;;1.63;;
7383;SDS011;3733;47.994;8.820;2022-08-03T12:33:17;3.33;;;2.00;;
7383;SDS011;3733;47.994;8.820;2022-08-03T12:35:48;1.80;;;1.60;;
7383;SDS011;3733;47.994;8.820;2022-08-03T12:38:25;4.00;;;2.15;;
7383;SDS011;3733;47.994;8.820;2022-08-03T12:40:55;1.88;;;1.77;;
7383;SDS011;3733;47.994;8.820;2022-08-03T12:43:22;3.55;;;1.50;;
7383;SDS011;3733;47.994;8.820;2022-08-03T12:45:47;3.00;;;1.83;;
7383;SDS011;3733;47.994;8.820;2022-08-03T12:48:13;1.75;;;1.50;;
7383;SDS011;3733;47.994;8.820;2022-08-03T12:50:38;5.45;;;1.67;;
7383;SDS011;3733;47.994;8.820;2022-08-03T12:53:06;1.80;;;1.70;;
7383;SDS011;3733;47.994;8.820;2022-08-03T12:55:33;4.05;;;2.25;;
7383;SDS011;3733;47.994;8.820;2022-08-03T12:57:59;1.58;;;1.48;;
7383;SDS011;3733;47.994;8.820;2022-08-03T13:00:26;2.20;;;1.80;;
7383;SDS011;3733;47.994;8.820;2022-08-03T13:03:07;5.78;;;2.08;;
7383;SDS011;3733;47.994;8.820;2022-08-03T13:05:42;1.98;;;1.88;;
7383;SDS011;3733;47.994;8.820;2022-08-03T13:08:22;2.38;;;1.83;;
7383;SDS011;3733;47.994;8.820;2022-08-03T13:10:49;2.42;;;1.67;;
7383;SDS011;3733;47.994;8.820;2022-08-03T13:13:15;1.83;;;1.42;;
7383;SDS011;3733;47.994;8.820;2022-08-03T13:15:41;1.70;;;1.45;;
7383;SDS011;3733;47.994;8.820;2022-08-03T13:18:07;1.92;;;1.60;;
7383;SDS011;3733;47.994;8.820;2022-08-03T13:20:33;1.60;;;1.48;;
7383;SDS011;3733;47.994;8.820;2022-08-03T13:22:59;2.35;;;2.15;;
7383;SDS011;3733;47.994;8.820;2022-08-03T13:25:24;2.13;;;1.70;;
7383;SDS011;3733;47.994;8.820;2022-08-03T13:27:50;2.60;;;1.45;;
7383;SDS011;3733;47.994;8.820;2022-08-03T13:30:17;1.80;;;1.70;;
7383;SDS011;3733;47.994;8.820;2022-08-03T13:32:43;2.28;;;1.73;;
7383;SDS011;3733;47.994;8.820;2022-08-03T13:35:09;1.60;;;1.50;;
7383;SDS011;3733;47.994;8.820;2022-08-03T13:37:35;1.90;;;1.80;;
7383;SDS011;3733;47.994;8.820;2022-08-03T13:40:03;1.70;;;1.60;;
7383;SDS011;3733;47.994;8.820;2022-08-03T13:42:31;3.42;;;1.90;;
7383;SDS011;3733;47.994;8.820;2022-08-03T13:44:58;3.58;;;2.20;;
7383;SDS011;3733;47.994;8.820;2022-08-03T13:47:25;2.88;;;1.65;;
7383;SDS011;3733;47.994;8.820;2022-08-03T13:49:51;1.80;;;1.70;;
7383;SDS011;3733;47.994;8.820;2022-08-03T13:52:17;4.55;;;1.70;;
7383;SDS011;3733;47.994;8.820;2022-08-03T13:54:43;2.15;;;1.70;;
7383;SDS011;3733;47.994;8.820;2022-08-03T13:57:09;2.13;;;1.92;;
7383;SDS011;3733;47.994;8.820;2022-08-03T13:59:35;2.15;;;1.73;;
7383;SDS011;3733;47.994;8.820;2022-08-03T14:02:01;1.88;;;1.77;;
7383;SDS011;3733;47.994;8.820;2022-08-03T14:04:27;2.10;;;1.90;;
7383;SDS011;3733;47.994;8.820;2022-08-03T14:06:53;2.75;;;1.77;;
7383;SDS011;3733;47.994;8.820;2022-08-03T14:09:19;2.47;;;1.90;;
7383;SDS011;3733;47.994;8.820;2022-08-03T14:11:44;1.90;;;1.80;;
7383;SDS011;3733;47.994;8.820;2022-08-03T14:14:10;2.05;;;1.85;;
7383;SDS011;3733;47.994;8.820;2022-08-03T14:16:37;1.80;;;1.70;;
7383;SDS011;3733;47.994;8.820;2022-08-03T14:19:03;2.42;;;1.65;;
7383;SDS011;3733;47.994;8.820;2022-08-03T14:21:29;2.92;;;1.95;;
7383;SDS011;3733;47.994;8.820;2022-08-03T14:23:55;4.70;;;2.00;;
7383;SDS011;3733;47.994;8.820;2022-08-03T14:26:21;4.13;;;1.85;;
7383;SDS011;3733;47.994;8.820;2022-08-03T14:28:47;1.88;;;1.77;;
7383;SDS011;3733;47.994;8.820;2022-08-03T14:31:12;1.80;;;1.70;;
7383;SDS011;3733;47.994;8.820;2022-08-03T14:33:38;4.45;;;2.15;;
7383;SDS011;3733;47.994;8.820;2022-08-03T14:36:04;2.55;;;2.33;;
7383;SDS011;3733;47.994;8.820;2022-08-03T14:38:30;1.80;;;1.70;;
7383;SDS011;3733;47.994;8.820;2022-08-03T14:40:55;3.45;;;1.80;;
7383;SDS011;3733;47.994;8.820;2022-08-03T14:43:21;2.13;;;1.80;;
7383;SDS011;3733;47.994;8.820;2022-08-03T14:45:48;2.03;;;1.83;;
7383;SDS011;3733;47.994;8.820;2022-08-03T14:48:16;1.95;;;1.85;;
7383;SDS011;3733;47.994;8.820;2022-08-03T14:50:43;2.28;;;2.08;;
7383;SDS011;3733;47.994;8.820;2022-08-03T14:53:08;2.25;;;1.63;;
7383;SDS011;3733;47.994;8.820;2022-08-03T14:55:34;1.95;;;1.75;;
7383;SDS011;3733;47.994;8.820;2022-08-03T14:58:00;2.50;;;2.30;;
7383;SDS011;3733;47.994;8.820;2022-08-03T15:00:30;2.08;;;1.98;;
7383;SDS011;3733;47.994;8.820;2022-08-03T15:02:56;1.95;;;1.70;;
7383;SDS011;3733;47.994;8.820;2022-08-03T15:05:21;1.92;;;1.73;;
7383;SDS011;3733;47.994;8.820;2022-08-03T15:07:47;8.60;;;1.73;;
7383;SDS011;3733;47.994;8.820;2022-08-03T15:10:13;3.55;;;1.63;;
7383;SDS011;3733;47.994;8.820;2022-08-03T15:12:38;4.78;;;2.30;;
7383;SDS011;3733;47.994;8.820;2022-08-03T15:15:04;1.92;;;1.83;;
7383;SDS011;3733;47.994;8.820;2022-08-03T15:17:30;2.20;;;1.88;;
7383;SDS011;3733;47.994;8.820;2022-08-03T15:19:56;2.42;;;1.60;;
7383;SDS011;3733;47.994;8.820;2022-08-03T15:22:21;2.35;;;1.60;;
7383;SDS011;3733;47.994;8.820;2022-08-03T15:24:47;2.47;;;1.80;;
7383;SDS011;3733;47.994;8.820;2022-08-03T15:27:13;2.10;;;1.80;;
7383;SDS011;3733;47.994;8.820;2022-08-03T15:29:39;2.10;;;2.00;;
7383;SDS011;3733;47.994;8.820;2022-08-03T15:32:04;3.35;;;2.00;;
7383;SDS011;3733;47.994;8.820;2022-08-03T15:34:30;3.50;;;2.30;;
7383;SDS011;3733;47.994;8.820;2022-08-03T15:36:56;6.03;;;1.90;;
7383;SDS011;3733;47.994;8.820;2022-08-03T15:39:21;2.88;;;2.00;;
7383;SDS011;3733;47.994;8.820;2022-08-03T15:41:47;2.63;;;1.90;;
7383;SDS011;3733;47.994;8.820;2022-08-03T15:44:12;1.80;;;1.70;;
7383;SDS011;3733;47.994;8.820;2022-08-03T15:46:42;2.53;;;1.75;;
7383;SDS011;3733;47.994;8.820;2022-08-03T15:49:07;4.10;;;1.80;;
7383;SDS011;3733;47.994;8.820;2022-08-03T15:51:33;5.63;;;5.13;;
7383;SDS011;3733;47.994;8.820;2022-08-03T15:53:59;2.80;;;2.60;;
7383;SDS011;3733;47.994;8.820;2022-08-03T15:56:24;2.55;;;1.65;;
7383;SDS011;3733;47.994;8.820;2022-08-03T15:58:50;9.15;;;2.17;;
7383;SDS011;3733;47.994;8.820;2022-08-03T16:01:16;1.98;;;1.88;;
7383;SDS011;3733;47.994;8.820;2022-08-03T16:03:43;2.42;;;2.03;;
7383;SDS011;3733;47.994;8.820;2022-08-03T16:06:09;1.85;;;1.75;;